Aviation Digital Data Service (ADDS)

Output produced by METARs form (2311 UTC 15 February 2019)
found at http://www.aviationweather.gov/metar/data/
 
METAR text: EDDM 152250Z 10002KT CAVOK M02/M03 Q1030 NOSIG
Conditions at: EDDM (MUNICH-FLUGHAFEN, DE) observed 2250 UTC 15 February 2019
Temperature: -2.0°C (28°F)
Dewpoint: -3.0°C (27°F) [RH = 93%]
Pressure (altimeter): 30.41 inches Hg (1030.0 mb)
Winds: from the E (100 degrees) at 2 MPH (2 knots; 1.0 m/s)
Visibility: 6 or more miles (10+ km)
Ceiling: ceiling and visibility are OK
Clouds: unknown
Weather: no significant weather observed at this time

METAR text: EDDM 152220Z VRB01KT CAVOK M01/M01 Q1031 NOSIG
Conditions at: EDDM (MUNICH-FLUGHAFEN, DE) observed 2220 UTC 15 February 2019
Temperature: -1.0°C (30°F)
Dewpoint: -1.0°C (30°F) [RH = 100%]
Pressure (altimeter): 30.44 inches Hg (1031.0 mb)
Winds: variable direction winds at 1 MPH (1 knots; 0.5 m/s)
Visibility: 6 or more miles (10+ km)
Ceiling: ceiling and visibility are OK
Clouds: unknown
Weather: no significant weather observed at this time

METAR text: EDDM 152150Z VRB01KT CAVOK M01/M02 Q1031 NOSIG
Conditions at: EDDM (MUNICH-FLUGHAFEN, DE) observed 2150 UTC 15 February 2019
Temperature: -1.0°C (30°F)
Dewpoint: -2.0°C (28°F) [RH = 93%]
Pressure (altimeter): 30.44 inches Hg (1031.0 mb)
Winds: variable direction winds at 1 MPH (1 knots; 0.5 m/s)
Visibility: 6 or more miles (10+ km)
Ceiling: ceiling and visibility are OK
Clouds: unknown
Weather: no significant weather observed at this time

METAR text: EDDM 152120Z 04005KT CAVOK 01/M00 Q1031 NOSIG
Conditions at: EDDM (MUNICH-FLUGHAFEN, DE) observed 2120 UTC 15 February 2019
Temperature: 1.0°C (34°F)
Dewpoint: 0.0°C (32°F) [RH = 93%]
Pressure (altimeter): 30.44 inches Hg (1031.0 mb)
Winds: from the NE (40 degrees) at 6 MPH (5 knots; 2.6 m/s)
Visibility: 6 or more miles (10+ km)
Ceiling: ceiling and visibility are OK
Clouds: unknown
Weather: no significant weather observed at this time

METAR text: EDDM 152050Z 03004KT CAVOK 01/M00 Q1031 NOSIG
Conditions at: EDDM (MUNICH-FLUGHAFEN, DE) observed 2050 UTC 15 February 2019
Temperature: 1.0°C (34°F)
Dewpoint: 0.0°C (32°F) [RH = 93%]
Pressure (altimeter): 30.44 inches Hg (1031.0 mb)
Winds: from the NNE (30 degrees) at 5 MPH (4 knots; 2.1 m/s)
Visibility: 6 or more miles (10+ km)
Ceiling: ceiling and visibility are OK
Clouds: unknown
Weather: no significant weather observed at this time

METAR text: EDDM 152020Z 02003KT CAVOK 00/M01 Q1031 NOSIG
Conditions at: EDDM (MUNICH-FLUGHAFEN, DE) observed 2020 UTC 15 February 2019
Temperature: 0.0°C (32°F)
Dewpoint: -1.0°C (30°F) [RH = 93%]
Pressure (altimeter): 30.44 inches Hg (1031.0 mb)
Winds: from the NNE (20 degrees) at 3 MPH (3 knots; 1.5 m/s)
Visibility: 6 or more miles (10+ km)
Ceiling: ceiling and visibility are OK
Clouds: unknown
Weather: no significant weather observed at this time

METAR text: EDDM 151950Z VRB01KT CAVOK 01/M00 Q1031 NOSIG
Conditions at: EDDM (MUNICH-FLUGHAFEN, DE) observed 1950 UTC 15 February 2019
Temperature: 1.0°C (34°F)
Dewpoint: 0.0°C (32°F) [RH = 93%]
Pressure (altimeter): 30.44 inches Hg (1031.0 mb)
Winds: variable direction winds at 1 MPH (1 knots; 0.5 m/s)
Visibility: 6 or more miles (10+ km)
Ceiling: ceiling and visibility are OK
Clouds: unknown
Weather: no significant weather observed at this time

METAR text: EDDM 151920Z VRB01KT CAVOK 00/M01 Q1032 NOSIG
Conditions at: EDDM (MUNICH-FLUGHAFEN, DE) observed 1920 UTC 15 February 2019
Temperature: 0.0°C (32°F)
Dewpoint: -1.0°C (30°F) [RH = 93%]
Pressure (altimeter): 30.47 inches Hg (1032.0 mb)
Winds: variable direction winds at 1 MPH (1 knots; 0.5 m/s)
Visibility: 6 or more miles (10+ km)
Ceiling: ceiling and visibility are OK
Clouds: unknown
Weather: no significant weather observed at this time

METAR text: EDDM 151850Z 03002KT CAVOK 01/M00 Q1032 NOSIG
Conditions at: EDDM (MUNICH-FLUGHAFEN, DE) observed 1850 UTC 15 February 2019
Temperature: 1.0°C (34°F)
Dewpoint: 0.0°C (32°F) [RH = 93%]
Pressure (altimeter): 30.47 inches Hg (1032.0 mb)
Winds: from the NNE (30 degrees) at 2 MPH (2 knots; 1.0 m/s)
Visibility: 6 or more miles (10+ km)
Ceiling: ceiling and visibility are OK
Clouds: unknown
Weather: no significant weather observed at this time

METAR text: EDDM 151820Z 04002KT CAVOK 02/M01 Q1032 NOSIG
Conditions at: EDDM (MUNICH-FLUGHAFEN, DE) observed 1820 UTC 15 February 2019
Temperature: 2.0°C (36°F)
Dewpoint: -1.0°C (30°F) [RH = 80%]
Pressure (altimeter): 30.47 inches Hg (1032.0 mb)
Winds: from the NE (40 degrees) at 2 MPH (2 knots; 1.0 m/s)
Visibility: 6 or more miles (10+ km)
Ceiling: ceiling and visibility are OK
Clouds: unknown
Weather: no significant weather observed at this time

METAR text: EDDM 151750Z 06002KT CAVOK 03/00 Q1032 NOSIG
Conditions at: EDDM (MUNICH-FLUGHAFEN, DE) observed 1750 UTC 15 February 2019
Temperature: 3.0°C (37°F)
Dewpoint: 0.0°C (32°F) [RH = 81%]
Pressure (altimeter): 30.47 inches Hg (1032.0 mb)
Winds: from the ENE (60 degrees) at 2 MPH (2 knots; 1.0 m/s)
Visibility: 6 or more miles (10+ km)
Ceiling: ceiling and visibility are OK
Clouds: unknown
Weather: no significant weather observed at this time

METAR text: EDDM 151720Z VRB02KT CAVOK 04/00 Q1032 NOSIG
Conditions at: EDDM (MUNICH-FLUGHAFEN, DE) observed 1720 UTC 15 February 2019
Temperature: 4.0°C (39°F)
Dewpoint: 0.0°C (32°F) [RH = 75%]
Pressure (altimeter): 30.47 inches Hg (1032.0 mb)
Winds: variable direction winds at 2 MPH (2 knots; 1.0 m/s)
Visibility: 6 or more miles (10+ km)
Ceiling: ceiling and visibility are OK
Clouds: unknown
Weather: no significant weather observed at this time

METAR text: EDDM 151650Z 08004KT CAVOK 07/01 Q1032 NOSIG
Conditions at: EDDM (MUNICH-FLUGHAFEN, DE) observed 1650 UTC 15 February 2019
Temperature: 7.0°C (45°F)
Dewpoint: 1.0°C (34°F) [RH = 66%]
Pressure (altimeter): 30.47 inches Hg (1032.0 mb)
Winds: from the E (80 degrees) at 5 MPH (4 knots; 2.1 m/s)
Visibility: 6 or more miles (10+ km)
Ceiling: ceiling and visibility are OK
Clouds: unknown
Weather: no significant weather observed at this time

METAR text: EDDM 151620Z 09004KT CAVOK 09/01 Q1032 NOSIG
Conditions at: EDDM (MUNICH-FLUGHAFEN, DE) observed 1620 UTC 15 February 2019
Temperature: 9.0°C (48°F)
Dewpoint: 1.0°C (34°F) [RH = 57%]
Pressure (altimeter): 30.47 inches Hg (1032.0 mb)
Winds: from the E (90 degrees) at 5 MPH (4 knots; 2.1 m/s)
Visibility: 6 or more miles (10+ km)
Ceiling: ceiling and visibility are OK
Clouds: unknown
Weather: no significant weather observed at this time

METAR text: EDDM 151550Z 08007KT CAVOK 09/01 Q1032 NOSIG
Conditions at: EDDM (MUNICH-FLUGHAFEN, DE) observed 1550 UTC 15 February 2019
Temperature: 9.0°C (48°F)
Dewpoint: 1.0°C (34°F) [RH = 57%]
Pressure (altimeter): 30.47 inches Hg (1032.0 mb)
Winds: from the E (80 degrees) at 8 MPH (7 knots; 3.6 m/s)
Visibility: 6 or more miles (10+ km)
Ceiling: ceiling and visibility are OK
Clouds: unknown
Weather: no significant weather observed at this time

METAR text: EDDM 151520Z 08009KT CAVOK 10/01 Q1032 NOSIG
Conditions at: EDDM (MUNICH-FLUGHAFEN, DE) observed 1520 UTC 15 February 2019
Temperature: 10.0°C (50°F)
Dewpoint: 1.0°C (34°F) [RH = 53%]
Pressure (altimeter): 30.47 inches Hg (1032.0 mb)
Winds: from the E (80 degrees) at 10 MPH (9 knots; 4.6 m/s)
Visibility: 6 or more miles (10+ km)
Ceiling: ceiling and visibility are OK
Clouds: unknown
Weather: no significant weather observed at this time

METAR text: EDDM 151450Z 09009KT CAVOK 10/00 Q1033 NOSIG
Conditions at: EDDM (MUNICH-FLUGHAFEN, DE) observed 1450 UTC 15 February 2019
Temperature: 10.0°C (50°F)
Dewpoint: 0.0°C (32°F) [RH = 50%]
Pressure (altimeter): 30.50 inches Hg (1033.0 mb)
Winds: from the E (90 degrees) at 10 MPH (9 knots; 4.6 m/s)
Visibility: 6 or more miles (10+ km)
Ceiling: ceiling and visibility are OK
Clouds: unknown
Weather: no significant weather observed at this time

METAR text: EDDM 151420Z 08009KT CAVOK 11/01 Q1033 NOSIG
Conditions at: EDDM (MUNICH-FLUGHAFEN, DE) observed 1420 UTC 15 February 2019
Temperature: 11.0°C (52°F)
Dewpoint: 1.0°C (34°F) [RH = 50%]
Pressure (altimeter): 30.50 inches Hg (1033.0 mb)
Winds: from the E (80 degrees) at 10 MPH (9 knots; 4.6 m/s)
Visibility: 6 or more miles (10+ km)
Ceiling: ceiling and visibility are OK
Clouds: unknown
Weather: no significant weather observed at this time

METAR text: EDDM 151350Z 06006KT 020V100 CAVOK 11/01 Q1033 NOSIG
Conditions at: EDDM (MUNICH-FLUGHAFEN, DE) observed 1350 UTC 15 February 2019
Temperature: 11.0°C (52°F)
Dewpoint: 1.0°C (34°F) [RH = 50%]
Pressure (altimeter): 30.50 inches Hg (1033.0 mb)
Winds: from the ENE (60 degrees) at 7 MPH (6 knots; 3.1 m/s)
Visibility: 6 or more miles (10+ km)
Ceiling: ceiling and visibility are OK
Clouds: unknown
Weather: no significant weather observed at this time

METAR text: EDDM 151320Z 06006KT 020V100 CAVOK 10/02 Q1033 NOSIG
Conditions at: EDDM (MUNICH-FLUGHAFEN, DE) observed 1320 UTC 15 February 2019
Temperature: 10.0°C (50°F)
Dewpoint: 2.0°C (36°F) [RH = 57%]
Pressure (altimeter): 30.50 inches Hg (1033.0 mb)
Winds: from the ENE (60 degrees) at 7 MPH (6 knots; 3.1 m/s)
Visibility: 6 or more miles (10+ km)
Ceiling: ceiling and visibility are OK
Clouds: unknown
Weather: no significant weather observed at this time

METAR text: EDDM 151250Z 06005KT 030V100 CAVOK 10/02 Q1033 NOSIG
Conditions at: EDDM (MUNICH-FLUGHAFEN, DE) observed 1250 UTC 15 February 2019
Temperature: 10.0°C (50°F)
Dewpoint: 2.0°C (36°F) [RH = 57%]
Pressure (altimeter): 30.50 inches Hg (1033.0 mb)
Winds: from the ENE (60 degrees) at 6 MPH (5 knots; 2.6 m/s)
Visibility: 6 or more miles (10+ km)
Ceiling: ceiling and visibility are OK
Clouds: unknown
Weather: no significant weather observed at this time

METAR text: EDDM 151220Z 06004KT 030V100 CAVOK 09/01 Q1034 NOSIG
Conditions at: EDDM (MUNICH-FLUGHAFEN, DE) observed 1220 UTC 15 February 2019
Temperature: 9.0°C (48°F)
Dewpoint: 1.0°C (34°F) [RH = 57%]
Pressure (altimeter): 30.53 inches Hg (1034.0 mb)
Winds: from the ENE (60 degrees) at 5 MPH (4 knots; 2.1 m/s)
Visibility: 6 or more miles (10+ km)
Ceiling: ceiling and visibility are OK
Clouds: unknown
Weather: no significant weather observed at this time

METAR text: EDDM 151150Z 06004KT CAVOK 08/02 Q1034 NOSIG
Conditions at: EDDM (MUNICH-FLUGHAFEN, DE) observed 1150 UTC 15 February 2019
Temperature: 8.0°C (46°F)
Dewpoint: 2.0°C (36°F) [RH = 66%]
Pressure (altimeter): 30.53 inches Hg (1034.0 mb)
Winds: from the ENE (60 degrees) at 5 MPH (4 knots; 2.1 m/s)
Visibility: 6 or more miles (10+ km)
Ceiling: ceiling and visibility are OK
Clouds: unknown
Weather: no significant weather observed at this time

METAR text: EDDM 151120Z 06005KT 030V110 CAVOK 07/01 Q1034 NOSIG
Conditions at: EDDM (MUNICH-FLUGHAFEN, DE) observed 1120 UTC 15 February 2019
Temperature: 7.0°C (45°F)
Dewpoint: 1.0°C (34°F) [RH = 66%]
Pressure (altimeter): 30.53 inches Hg (1034.0 mb)
Winds: from the ENE (60 degrees) at 6 MPH (5 knots; 2.6 m/s)
Visibility: 6 or more miles (10+ km)
Ceiling: ceiling and visibility are OK
Clouds: unknown
Weather: no significant weather observed at this time

METAR text: EDDM 151050Z 08007KT CAVOK 06/01 Q1035 NOSIG
Conditions at: EDDM (MUNICH-FLUGHAFEN, DE) observed 1050 UTC 15 February 2019
Temperature: 6.0°C (43°F)
Dewpoint: 1.0°C (34°F) [RH = 70%]
Pressure (altimeter): 30.56 inches Hg (1035.0 mb)
Winds: from the E (80 degrees) at 8 MPH (7 knots; 3.6 m/s)
Visibility: 6 or more miles (10+ km)
Ceiling: ceiling and visibility are OK
Clouds: unknown
Weather: no significant weather observed at this time

METAR text: EDDM 151020Z 05005KT CAVOK 05/01 Q1035 NOSIG
Conditions at: EDDM (MUNICH-FLUGHAFEN, DE) observed 1020 UTC 15 February 2019
Temperature: 5.0°C (41°F)
Dewpoint: 1.0°C (34°F) [RH = 75%]
Pressure (altimeter): 30.56 inches Hg (1035.0 mb)
Winds: from the NE (50 degrees) at 6 MPH (5 knots; 2.6 m/s)
Visibility: 6 or more miles (10+ km)
Ceiling: ceiling and visibility are OK
Clouds: unknown
Weather: no significant weather observed at this time

METAR text: EDDM 150950Z 06004KT CAVOK 03/01 Q1035 NOSIG
Conditions at: EDDM (MUNICH-FLUGHAFEN, DE) observed 0950 UTC 15 February 2019
Temperature: 3.0°C (37°F)
Dewpoint: 1.0°C (34°F) [RH = 87%]
Pressure (altimeter): 30.56 inches Hg (1035.0 mb)
Winds: from the ENE (60 degrees) at 5 MPH (4 knots; 2.1 m/s)
Visibility: 6 or more miles (10+ km)
Ceiling: ceiling and visibility are OK
Clouds: unknown
Weather: no significant weather observed at this time

METAR text: EDDM 150920Z 06003KT 030V100 CAVOK 02/00 Q1035 NOSIG
Conditions at: EDDM (MUNICH-FLUGHAFEN, DE) observed 0920 UTC 15 February 2019
Temperature: 2.0°C (36°F)
Dewpoint: 0.0°C (32°F) [RH = 87%]
Pressure (altimeter): 30.56 inches Hg (1035.0 mb)
Winds: from the ENE (60 degrees) at 3 MPH (3 knots; 1.5 m/s)
Visibility: 6 or more miles (10+ km)
Ceiling: ceiling and visibility are OK
Clouds: unknown
Weather: no significant weather observed at this time

METAR text: EDDM 150850Z 07003KT 9000 NSC 00/M01 Q1035 NOSIG
Conditions at: EDDM (MUNICH-FLUGHAFEN, DE) observed 0850 UTC 15 February 2019
Temperature: 0.0°C (32°F)
Dewpoint: -1.0°C (30°F) [RH = 93%]
Pressure (altimeter): 30.56 inches Hg (1035.0 mb)
Winds: from the ENE (70 degrees) at 3 MPH (3 knots; 1.5 m/s)
Visibility: 6 miles ( 9 km)
Ceiling: at least 12,000 feet AGL
Clouds: sky clear below 12,000 feet AGL
Weather: no significant weather observed at this time

METAR text: EDDM 150820Z 05004KT 9000 NSC M01/M01 Q1035 NOSIG
Conditions at: EDDM (MUNICH-FLUGHAFEN, DE) observed 0820 UTC 15 February 2019
Temperature: -1.0°C (30°F)
Dewpoint: -1.0°C (30°F) [RH = 100%]
Pressure (altimeter): 30.56 inches Hg (1035.0 mb)
Winds: from the NE (50 degrees) at 5 MPH (4 knots; 2.1 m/s)
Visibility: 6 miles ( 9 km)
Ceiling: at least 12,000 feet AGL
Clouds: sky clear below 12,000 feet AGL
Weather: no significant weather observed at this time

METAR text: EDDM 150750Z VRB02KT 8000 NSC M01/M02 Q1035 NOSIG
Conditions at: EDDM (MUNICH-FLUGHAFEN, DE) observed 0750 UTC 15 February 2019
Temperature: -1.0°C (30°F)
Dewpoint: -2.0°C (28°F) [RH = 93%]
Pressure (altimeter): 30.56 inches Hg (1035.0 mb)
Winds: variable direction winds at 2 MPH (2 knots; 1.0 m/s)
Visibility: 5 miles ( 8 km)
Ceiling: at least 12,000 feet AGL
Clouds: sky clear below 12,000 feet AGL
Weather: no significant weather observed at this time

METAR text: EDDM 150720Z 07001KT 8000 NSC M03/M03 Q1034 NOSIG
Conditions at: EDDM (MUNICH-FLUGHAFEN, DE) observed 0720 UTC 15 February 2019
Temperature: -3.0°C (27°F)
Dewpoint: -3.0°C (27°F) [RH = 100%]
Pressure (altimeter): 30.53 inches Hg (1034.0 mb)
Winds: from the ENE (70 degrees) at 1 MPH (1 knots; 0.5 m/s)
Visibility: 5 miles ( 8 km)
Ceiling: at least 12,000 feet AGL
Clouds: sky clear below 12,000 feet AGL
Weather: no significant weather observed at this time

METAR text: EDDM 150650Z 06003KT 8000 NSC M04/M05 Q1035 NOSIG
Conditions at: EDDM (MUNICH-FLUGHAFEN, DE) observed 0650 UTC 15 February 2019
Temperature: -4.0°C (25°F)
Dewpoint: -5.0°C (23°F) [RH = 93%]
Pressure (altimeter): 30.56 inches Hg (1035.0 mb)
Winds: from the ENE (60 degrees) at 3 MPH (3 knots; 1.5 m/s)
Visibility: 5 miles ( 8 km)
Ceiling: at least 12,000 feet AGL
Clouds: sky clear below 12,000 feet AGL
Weather: no significant weather observed at this time

METAR text: EDDM 150620Z 05002KT 8000 NSC M04/M05 Q1034 NOSIG
Conditions at: EDDM (MUNICH-FLUGHAFEN, DE) observed 0620 UTC 15 February 2019
Temperature: -4.0°C (25°F)
Dewpoint: -5.0°C (23°F) [RH = 93%]
Pressure (altimeter): 30.53 inches Hg (1034.0 mb)
Winds: from the NE (50 degrees) at 2 MPH (2 knots; 1.0 m/s)
Visibility: 5 miles ( 8 km)
Ceiling: at least 12,000 feet AGL
Clouds: sky clear below 12,000 feet AGL
Weather: no significant weather observed at this time

METAR text: EDDM 150550Z 04002KT 8000 BCFG NSC M04/M04 Q1034 NOSIG
Conditions at: EDDM (MUNICH-FLUGHAFEN, DE) observed 0550 UTC 15 February 2019
Temperature: -4.0°C (25°F)
Dewpoint: -4.0°C (25°F) [RH = 100%]
Pressure (altimeter): 30.53 inches Hg (1034.0 mb)
Winds: from the NE (40 degrees) at 2 MPH (2 knots; 1.0 m/s)
Visibility: 5 miles ( 8 km)
Ceiling: at least 12,000 feet AGL
Clouds: sky clear below 12,000 feet AGL
Weather: BCFG  (patches of fog)

METAR text: EDDM 150520Z VRB01KT 9999 4500SW R08R/0550V0900U BCFG NSC M04/M04 Q1034 NOSIG
Conditions at: EDDM (MUNICH-FLUGHAFEN, DE) observed 0520 UTC 15 February 2019
Temperature: -4.0°C (25°F)
Dewpoint: -4.0°C (25°F) [RH = 100%]
Pressure (altimeter): 30.53 inches Hg (1034.0 mb)
Winds: variable direction winds at 1 MPH (1 knots; 0.5 m/s)
Visibility: 6 or more miles (10+ km)
Ceiling: at least 12,000 feet AGL
Clouds: sky clear below 12,000 feet AGL
Weather: BCFG  (patches of fog)

METAR text: EDDM 150450Z 07001KT CAVOK M04/M04 Q1034 NOSIG
Conditions at: EDDM (MUNICH-FLUGHAFEN, DE) observed 0450 UTC 15 February 2019
Temperature: -4.0°C (25°F)
Dewpoint: -4.0°C (25°F) [RH = 100%]
Pressure (altimeter): 30.53 inches Hg (1034.0 mb)
Winds: from the ENE (70 degrees) at 1 MPH (1 knots; 0.5 m/s)
Visibility: 6 or more miles (10+ km)
Ceiling: ceiling and visibility are OK
Clouds: unknown
Weather: no significant weather observed at this time

METAR text: EDDM 150420Z 06001KT CAVOK M04/M05 Q1035 NOSIG
Conditions at: EDDM (MUNICH-FLUGHAFEN, DE) observed 0420 UTC 15 February 2019
Temperature: -4.0°C (25°F)
Dewpoint: -5.0°C (23°F) [RH = 93%]
Pressure (altimeter): 30.56 inches Hg (1035.0 mb)
Winds: from the ENE (60 degrees) at 1 MPH (1 knots; 0.5 m/s)
Visibility: 6 or more miles (10+ km)
Ceiling: ceiling and visibility are OK
Clouds: unknown
Weather: no significant weather observed at this time

METAR text: EDDM 150350Z 06002KT 9999 3000SW R08L/0900V1500N R08R/0800VP2000U BCFG NSC M04/M04 Q1035 NOSIG
Conditions at: EDDM (MUNICH-FLUGHAFEN, DE) observed 0350 UTC 15 February 2019
Temperature: -4.0°C (25°F)
Dewpoint: -4.0°C (25°F) [RH = 100%]
Pressure (altimeter): 30.56 inches Hg (1035.0 mb)
Winds: from the ENE (60 degrees) at 2 MPH (2 knots; 1.0 m/s)
Visibility: 6 or more miles (10+ km)
Ceiling: at least 12,000 feet AGL
Clouds: sky clear below 12,000 feet AGL
Weather: BCFG  (patches of fog)

METAR text: EDDM 150320Z 01001KT 9999 4000NE BCFG NSC M04/M04 Q1035 NOSIG
Conditions at: EDDM (MUNICH-FLUGHAFEN, DE) observed 0320 UTC 15 February 2019
Temperature: -4.0°C (25°F)
Dewpoint: -4.0°C (25°F) [RH = 100%]
Pressure (altimeter): 30.56 inches Hg (1035.0 mb)
Winds: from the N (10 degrees) at 1 MPH (1 knots; 0.5 m/s)
Visibility: 6 or more miles (10+ km)
Ceiling: at least 12,000 feet AGL
Clouds: sky clear below 12,000 feet AGL
Weather: BCFG  (patches of fog)

METAR text: EDDM 150250Z 05001KT 9999 4000SE R26L/0550V1000N BCFG NSC M04/M04 Q1035 NOSIG
Conditions at: EDDM (MUNICH-FLUGHAFEN, DE) observed 0250 UTC 15 February 2019
Temperature: -4.0°C (25°F)
Dewpoint: -4.0°C (25°F) [RH = 100%]
Pressure (altimeter): 30.56 inches Hg (1035.0 mb)
Winds: from the NE (50 degrees) at 1 MPH (1 knots; 0.5 m/s)
Visibility: 6 or more miles (10+ km)
Ceiling: at least 12,000 feet AGL
Clouds: sky clear below 12,000 feet AGL
Weather: BCFG  (patches of fog)

METAR text: EDDM 150220Z 05002KT 9999 4000SE R26R/0800VP2000D R26L/0650V1300U BCFG NSC M04/M04 Q1035 NOSIG
Conditions at: EDDM (MUNICH-FLUGHAFEN, DE) observed 0220 UTC 15 February 2019
Temperature: -4.0°C (25°F)
Dewpoint: -4.0°C (25°F) [RH = 100%]
Pressure (altimeter): 30.56 inches Hg (1035.0 mb)
Winds: from the NE (50 degrees) at 2 MPH (2 knots; 1.0 m/s)
Visibility: 6 or more miles (10+ km)
Ceiling: at least 12,000 feet AGL
Clouds: sky clear below 12,000 feet AGL
Weather: BCFG  (patches of fog)

METAR text: EDDM 150150Z VRB01KT 9999 3000SE R26R/0900VP2000N R26L/0550N BCFG NSC M04/M04 Q1035 NOSIG
Conditions at: EDDM (MUNICH-FLUGHAFEN, DE) observed 0150 UTC 15 February 2019
Temperature: -4.0°C (25°F)
Dewpoint: -4.0°C (25°F) [RH = 100%]
Pressure (altimeter): 30.56 inches Hg (1035.0 mb)
Winds: variable direction winds at 1 MPH (1 knots; 0.5 m/s)
Visibility: 6 or more miles (10+ km)
Ceiling: at least 12,000 feet AGL
Clouds: sky clear below 12,000 feet AGL
Weather: BCFG  (patches of fog)

METAR text: EDDM 150120Z 04001KT 9999 4500NE BCFG NSC M03/M03 Q1035 NOSIG
Conditions at: EDDM (MUNICH-FLUGHAFEN, DE) observed 0120 UTC 15 February 2019
Temperature: -3.0°C (27°F)
Dewpoint: -3.0°C (27°F) [RH = 100%]
Pressure (altimeter): 30.56 inches Hg (1035.0 mb)
Winds: from the NE (40 degrees) at 1 MPH (1 knots; 0.5 m/s)
Visibility: 6 or more miles (10+ km)
Ceiling: at least 12,000 feet AGL
Clouds: sky clear below 12,000 feet AGL
Weather: BCFG  (patches of fog)

METAR text: EDDM 150050Z 07001KT 9999 4500NE R26R/0650V1100U BCFG NSC M03/M03 Q1035 NOSIG
Conditions at: EDDM (MUNICH-FLUGHAFEN, DE) observed 0050 UTC 15 February 2019
Temperature: -3.0°C (27°F)
Dewpoint: -3.0°C (27°F) [RH = 100%]
Pressure (altimeter): 30.56 inches Hg (1035.0 mb)
Winds: from the ENE (70 degrees) at 1 MPH (1 knots; 0.5 m/s)
Visibility: 6 or more miles (10+ km)
Ceiling: at least 12,000 feet AGL
Clouds: sky clear below 12,000 feet AGL
Weather: BCFG  (patches of fog)

METAR text: EDDM 150020Z 09002KT CAVOK M03/M03 Q1035 NOSIG
Conditions at: EDDM (MUNICH-FLUGHAFEN, DE) observed 0020 UTC 15 February 2019
Temperature: -3.0°C (27°F)
Dewpoint: -3.0°C (27°F) [RH = 100%]
Pressure (altimeter): 30.56 inches Hg (1035.0 mb)
Winds: from the E (90 degrees) at 2 MPH (2 knots; 1.0 m/s)
Visibility: 6 or more miles (10+ km)
Ceiling: ceiling and visibility are OK
Clouds: unknown
Weather: no significant weather observed at this time

METAR text: EDDM 142350Z VRB01KT CAVOK M03/M03 Q1035 NOSIG
Conditions at: EDDM (MUNICH-FLUGHAFEN, DE) observed 2350 UTC 14 February 2019
Temperature: -3.0°C (27°F)
Dewpoint: -3.0°C (27°F) [RH = 100%]
Pressure (altimeter): 30.56 inches Hg (1035.0 mb)
Winds: variable direction winds at 1 MPH (1 knots; 0.5 m/s)
Visibility: 6 or more miles (10+ km)
Ceiling: ceiling and visibility are OK
Clouds: unknown
Weather: no significant weather observed at this time

METAR text: EDDM 142320Z 00000KT CAVOK M03/M03 Q1036 NOSIG
Conditions at: EDDM (MUNICH-FLUGHAFEN, DE) observed 2320 UTC 14 February 2019
Temperature: -3.0°C (27°F)
Dewpoint: -3.0°C (27°F) [RH = 100%]
Pressure (altimeter): 30.59 inches Hg (1036.0 mb)
Winds: calm
Visibility: 6 or more miles (10+ km)
Ceiling: ceiling and visibility are OK
Clouds: unknown
Weather: no significant weather observed at this time

METAR text: EDDM 142250Z 12001KT CAVOK M02/M02 Q1035 NOSIG
Conditions at: EDDM (MUNICH-FLUGHAFEN, DE) observed 2250 UTC 14 February 2019
Temperature: -2.0°C (28°F)
Dewpoint: -2.0°C (28°F) [RH = 100%]
Pressure (altimeter): 30.56 inches Hg (1035.0 mb)
Winds: from the ESE (120 degrees) at 1 MPH (1 knots; 0.5 m/s)
Visibility: 6 or more miles (10+ km)
Ceiling: ceiling and visibility are OK
Clouds: unknown
Weather: no significant weather observed at this time

METAR text: EDDM 142220Z VRB01KT CAVOK M02/M03 Q1036 NOSIG
Conditions at: EDDM (MUNICH-FLUGHAFEN, DE) observed 2220 UTC 14 February 2019
Temperature: -2.0°C (28°F)
Dewpoint: -3.0°C (27°F) [RH = 93%]
Pressure (altimeter): 30.59 inches Hg (1036.0 mb)
Winds: variable direction winds at 1 MPH (1 knots; 0.5 m/s)
Visibility: 6 or more miles (10+ km)
Ceiling: ceiling and visibility are OK
Clouds: unknown
Weather: no significant weather observed at this time

METAR text: EDDM 142150Z 04001KT CAVOK M01/M02 Q1036 NOSIG
Conditions at: EDDM (MUNICH-FLUGHAFEN, DE) observed 2150 UTC 14 February 2019
Temperature: -1.0°C (30°F)
Dewpoint: -2.0°C (28°F) [RH = 93%]
Pressure (altimeter): 30.59 inches Hg (1036.0 mb)
Winds: from the NE (40 degrees) at 1 MPH (1 knots; 0.5 m/s)
Visibility: 6 or more miles (10+ km)
Ceiling: ceiling and visibility are OK
Clouds: unknown
Weather: no significant weather observed at this time

METAR text: EDDM 142120Z 01001KT CAVOK M01/M02 Q1036 NOSIG
Conditions at: EDDM (MUNICH-FLUGHAFEN, DE) observed 2120 UTC 14 February 2019
Temperature: -1.0°C (30°F)
Dewpoint: -2.0°C (28°F) [RH = 93%]
Pressure (altimeter): 30.59 inches Hg (1036.0 mb)
Winds: from the N (10 degrees) at 1 MPH (1 knots; 0.5 m/s)
Visibility: 6 or more miles (10+ km)
Ceiling: ceiling and visibility are OK
Clouds: unknown
Weather: no significant weather observed at this time

METAR text: EDDM 142050Z 28001KT CAVOK M01/M02 Q1035 NOSIG
Conditions at: EDDM (MUNICH-FLUGHAFEN, DE) observed 2050 UTC 14 February 2019
Temperature: -1.0°C (30°F)
Dewpoint: -2.0°C (28°F) [RH = 93%]
Pressure (altimeter): 30.56 inches Hg (1035.0 mb)
Winds: from the W (280 degrees) at 1 MPH (1 knots; 0.5 m/s)
Visibility: 6 or more miles (10+ km)
Ceiling: ceiling and visibility are OK
Clouds: unknown
Weather: no significant weather observed at this time

METAR text: EDDM 142020Z 10004KT 080V140 CAVOK M00/M01 Q1035 NOSIG
Conditions at: EDDM (MUNICH-FLUGHAFEN, DE) observed 2020 UTC 14 February 2019
Temperature: 0.0°C (32°F)
Dewpoint: -1.0°C (30°F) [RH = 93%]
Pressure (altimeter): 30.56 inches Hg (1035.0 mb)
Winds: from the E (100 degrees) at 5 MPH (4 knots; 2.1 m/s)
Visibility: 6 or more miles (10+ km)
Ceiling: ceiling and visibility are OK
Clouds: unknown
Weather: no significant weather observed at this time

METAR text: EDDM 141950Z 09003KT CAVOK 01/M01 Q1036 NOSIG
Conditions at: EDDM (MUNICH-FLUGHAFEN, DE) observed 1950 UTC 14 February 2019
Temperature: 1.0°C (34°F)
Dewpoint: -1.0°C (30°F) [RH = 86%]
Pressure (altimeter): 30.59 inches Hg (1036.0 mb)
Winds: from the E (90 degrees) at 3 MPH (3 knots; 1.5 m/s)
Visibility: 6 or more miles (10+ km)
Ceiling: ceiling and visibility are OK
Clouds: unknown
Weather: no significant weather observed at this time

METAR text: EDDM 141920Z VRB02KT CAVOK 01/M01 Q1036 NOSIG
Conditions at: EDDM (MUNICH-FLUGHAFEN, DE) observed 1920 UTC 14 February 2019
Temperature: 1.0°C (34°F)
Dewpoint: -1.0°C (30°F) [RH = 86%]
Pressure (altimeter): 30.59 inches Hg (1036.0 mb)
Winds: variable direction winds at 2 MPH (2 knots; 1.0 m/s)
Visibility: 6 or more miles (10+ km)
Ceiling: ceiling and visibility are OK
Clouds: unknown
Weather: no significant weather observed at this time

METAR text: EDDM 141850Z VRB02KT CAVOK 02/M01 Q1035 NOSIG
Conditions at: EDDM (MUNICH-FLUGHAFEN, DE) observed 1850 UTC 14 February 2019
Temperature: 2.0°C (36°F)
Dewpoint: -1.0°C (30°F) [RH = 80%]
Pressure (altimeter): 30.56 inches Hg (1035.0 mb)
Winds: variable direction winds at 2 MPH (2 knots; 1.0 m/s)
Visibility: 6 or more miles (10+ km)
Ceiling: ceiling and visibility are OK
Clouds: unknown
Weather: no significant weather observed at this time

METAR text: EDDM 141820Z VRB02KT CAVOK 03/M00 Q1036 NOSIG
Conditions at: EDDM (MUNICH-FLUGHAFEN, DE) observed 1820 UTC 14 February 2019
Temperature: 3.0°C (37°F)
Dewpoint: 0.0°C (32°F) [RH = 81%]
Pressure (altimeter): 30.59 inches Hg (1036.0 mb)
Winds: variable direction winds at 2 MPH (2 knots; 1.0 m/s)
Visibility: 6 or more miles (10+ km)
Ceiling: ceiling and visibility are OK
Clouds: unknown
Weather: no significant weather observed at this time

METAR text: EDDM 141750Z 10004KT CAVOK 04/M00 Q1036 NOSIG
Conditions at: EDDM (MUNICH-FLUGHAFEN, DE) observed 1750 UTC 14 February 2019
Temperature: 4.0°C (39°F)
Dewpoint: 0.0°C (32°F) [RH = 75%]
Pressure (altimeter): 30.59 inches Hg (1036.0 mb)
Winds: from the E (100 degrees) at 5 MPH (4 knots; 2.1 m/s)
Visibility: 6 or more miles (10+ km)
Ceiling: ceiling and visibility are OK
Clouds: unknown
Weather: no significant weather observed at this time

METAR text: EDDM 141720Z VRB02KT CAVOK 05/M01 Q1036 NOSIG
Conditions at: EDDM (MUNICH-FLUGHAFEN, DE) observed 1720 UTC 14 February 2019
Temperature: 5.0°C (41°F)
Dewpoint: -1.0°C (30°F) [RH = 65%]
Pressure (altimeter): 30.59 inches Hg (1036.0 mb)
Winds: variable direction winds at 2 MPH (2 knots; 1.0 m/s)
Visibility: 6 or more miles (10+ km)
Ceiling: ceiling and visibility are OK
Clouds: unknown
Weather: no significant weather observed at this time

METAR text: EDDM 141650Z VRB02KT CAVOK 07/M01 Q1035 NOSIG
Conditions at: EDDM (MUNICH-FLUGHAFEN, DE) observed 1650 UTC 14 February 2019
Temperature: 7.0°C (45°F)
Dewpoint: -1.0°C (30°F) [RH = 57%]
Pressure (altimeter): 30.56 inches Hg (1035.0 mb)
Winds: variable direction winds at 2 MPH (2 knots; 1.0 m/s)
Visibility: 6 or more miles (10+ km)
Ceiling: ceiling and visibility are OK
Clouds: unknown
Weather: no significant weather observed at this time

METAR text: EDDM 141620Z 13003KT 100V170 CAVOK 07/01 Q1035 NOSIG
Conditions at: EDDM (MUNICH-FLUGHAFEN, DE) observed 1620 UTC 14 February 2019
Temperature: 7.0°C (45°F)
Dewpoint: 1.0°C (34°F) [RH = 66%]
Pressure (altimeter): 30.56 inches Hg (1035.0 mb)
Winds: from the SE (130 degrees) at 3 MPH (3 knots; 1.5 m/s)
Visibility: 6 or more miles (10+ km)
Ceiling: ceiling and visibility are OK
Clouds: unknown
Weather: no significant weather observed at this time

METAR text: EDDM 141550Z 09004KT 060V120 CAVOK 08/01 Q1035 NOSIG
Conditions at: EDDM (MUNICH-FLUGHAFEN, DE) observed 1550 UTC 14 February 2019
Temperature: 8.0°C (46°F)
Dewpoint: 1.0°C (34°F) [RH = 61%]
Pressure (altimeter): 30.56 inches Hg (1035.0 mb)
Winds: from the E (90 degrees) at 5 MPH (4 knots; 2.1 m/s)
Visibility: 6 or more miles (10+ km)
Ceiling: ceiling and visibility are OK
Clouds: unknown
Weather: no significant weather observed at this time

METAR text: EDDM 141520Z 09003KT 050V130 CAVOK 08/02 Q1035 NOSIG
Conditions at: EDDM (MUNICH-FLUGHAFEN, DE) observed 1520 UTC 14 February 2019
Temperature: 8.0°C (46°F)
Dewpoint: 2.0°C (36°F) [RH = 66%]
Pressure (altimeter): 30.56 inches Hg (1035.0 mb)
Winds: from the E (90 degrees) at 3 MPH (3 knots; 1.5 m/s)
Visibility: 6 or more miles (10+ km)
Ceiling: ceiling and visibility are OK
Clouds: unknown
Weather: no significant weather observed at this time

METAR text: EDDM 141450Z 09004KT 020V120 CAVOK 09/02 Q1036 NOSIG
Conditions at: EDDM (MUNICH-FLUGHAFEN, DE) observed 1450 UTC 14 February 2019
Temperature: 9.0°C (48°F)
Dewpoint: 2.0°C (36°F) [RH = 61%]
Pressure (altimeter): 30.59 inches Hg (1036.0 mb)
Winds: from the E (90 degrees) at 5 MPH (4 knots; 2.1 m/s)
Visibility: 6 or more miles (10+ km)
Ceiling: ceiling and visibility are OK
Clouds: unknown
Weather: no significant weather observed at this time

METAR text: EDDM 141420Z 10004KT 040V140 CAVOK 09/02 Q1036 NOSIG
Conditions at: EDDM (MUNICH-FLUGHAFEN, DE) observed 1420 UTC 14 February 2019
Temperature: 9.0°C (48°F)
Dewpoint: 2.0°C (36°F) [RH = 61%]
Pressure (altimeter): 30.59 inches Hg (1036.0 mb)
Winds: from the E (100 degrees) at 5 MPH (4 knots; 2.1 m/s)
Visibility: 6 or more miles (10+ km)
Ceiling: ceiling and visibility are OK
Clouds: unknown
Weather: no significant weather observed at this time

METAR text: EDDM 141350Z 13002KT CAVOK 09/02 Q1036 NOSIG
Conditions at: EDDM (MUNICH-FLUGHAFEN, DE) observed 1350 UTC 14 February 2019
Temperature: 9.0°C (48°F)
Dewpoint: 2.0°C (36°F) [RH = 61%]
Pressure (altimeter): 30.59 inches Hg (1036.0 mb)
Winds: from the SE (130 degrees) at 2 MPH (2 knots; 1.0 m/s)
Visibility: 6 or more miles (10+ km)
Ceiling: ceiling and visibility are OK
Clouds: unknown
Weather: no significant weather observed at this time

METAR text: EDDM 141320Z VRB02KT CAVOK 09/01 Q1036 NOSIG
Conditions at: EDDM (MUNICH-FLUGHAFEN, DE) observed 1320 UTC 14 February 2019
Temperature: 9.0°C (48°F)
Dewpoint: 1.0°C (34°F) [RH = 57%]
Pressure (altimeter): 30.59 inches Hg (1036.0 mb)
Winds: variable direction winds at 2 MPH (2 knots; 1.0 m/s)
Visibility: 6 or more miles (10+ km)
Ceiling: ceiling and visibility are OK
Clouds: unknown
Weather: no significant weather observed at this time

METAR text: EDDM 141250Z 28001KT CAVOK 08/01 Q1036 NOSIG
Conditions at: EDDM (MUNICH-FLUGHAFEN, DE) observed 1250 UTC 14 February 2019
Temperature: 8.0°C (46°F)
Dewpoint: 1.0°C (34°F) [RH = 61%]
Pressure (altimeter): 30.59 inches Hg (1036.0 mb)
Winds: from the W (280 degrees) at 1 MPH (1 knots; 0.5 m/s)
Visibility: 6 or more miles (10+ km)
Ceiling: ceiling and visibility are OK
Clouds: unknown
Weather: no significant weather observed at this time

METAR text: EDDM 141220Z 35004KT 280V030 CAVOK 08/02 Q1037 NOSIG
Conditions at: EDDM (MUNICH-FLUGHAFEN, DE) observed 1220 UTC 14 February 2019
Temperature: 8.0°C (46°F)
Dewpoint: 2.0°C (36°F) [RH = 66%]
Pressure (altimeter): 30.62 inches Hg (1037.0 mb)
Winds: from the N (350 degrees) at 5 MPH (4 knots; 2.1 m/s)
Visibility: 6 or more miles (10+ km)
Ceiling: ceiling and visibility are OK
Clouds: unknown
Weather: no significant weather observed at this time

METAR text: EDDM 141150Z VRB03KT CAVOK 07/01 Q1037 NOSIG
Conditions at: EDDM (MUNICH-FLUGHAFEN, DE) observed 1150 UTC 14 February 2019
Temperature: 7.0°C (45°F)
Dewpoint: 1.0°C (34°F) [RH = 66%]
Pressure (altimeter): 30.62 inches Hg (1037.0 mb)
Winds: variable direction winds at 3 MPH (3 knots; 1.5 m/s)
Visibility: 6 or more miles (10+ km)
Ceiling: ceiling and visibility are OK
Clouds: unknown
Weather: no significant weather observed at this time

METAR text: EDDM 141120Z 28003KT 180V330 CAVOK 06/00 Q1037 NOSIG
Conditions at: EDDM (MUNICH-FLUGHAFEN, DE) observed 1120 UTC 14 February 2019
Temperature: 6.0°C (43°F)
Dewpoint: 0.0°C (32°F) [RH = 65%]
Pressure (altimeter): 30.62 inches Hg (1037.0 mb)
Winds: from the W (280 degrees) at 3 MPH (3 knots; 1.5 m/s)
Visibility: 6 or more miles (10+ km)
Ceiling: ceiling and visibility are OK
Clouds: unknown
Weather: no significant weather observed at this time

Forecast for: EDDM (MUNICH-FLUGHAFEN, DE)
Text: TAF EDDM 151700Z 1518/1624 08006KT CAVOK
Forecast period: 1800 to 1900 UTC 15 February 2019
Forecast type: FROM: standard forecast or significant change
Winds: from the E (80 degrees) at 7 MPH (6 knots; 3.1 m/s)
Visibility: 6 or more miles 10+ km)
Ceiling: unknown
Clouds: missing
Weather: NSW  (no significant weather)
Text: BECMG 1519/1522 VRB03KT
Forecast period: 1900 UTC 15 February 2019 to 0000 UTC 17 February 2019
Forecast type: BECOMING: Conditions expected to become as follows by 2200 UTC 15 February 2019
Winds: variable direction winds at 3 MPH (3 knots; 1.5 m/s)
Visibility: 6 or more miles 10+ km)
Ceiling: unknown
Clouds: missing
Weather: NSW  (no significant weather)
Text: PROB30
Forecast period: 0300 to 0800 UTC 16 February 2019
Forecast type: TEMPORARY: The following changes expected for less than half the time period
Visibility: 1.86 miles (2.99 km)
Ceiling: unknown
Clouds: missing
Weather: BCFG  (patches of fog)